Time;durP1;ratioP1;P1;durP2;ratioP2;P2;SDS_P1;SDS_P2;PMS_P1;PMS_P2;Temp;Humidity;BMP_temperature;BMP_pressure;BME280_temperature;BME280_humidity;BME280_pressure;Samples;Min_cycle;Max_cycle;Signal;HPM_P1;HPM_P2
2023/03/17 00:03:15;;;;;;;17.6;13.1;;;;;;;-2.7;79.3;99510;;;;
2023/03/17 00:14:15;;;;;;;17.6;13.1;;;;;;;-2.8;79.3;99510;;;;
2023/03/17 00:25:16;;;;;;;17.6;13.1;;;;;;;-2.9;79.1;99510;;;;
2023/03/17 00:35:16;;;;;;;14.2;8.9;;;;;;;-3;79.4;99510;;;;
2023/03/17 00:45:16;;;;;;;14.2;8.9;;;;;;;-3.1;79.2;99510;;;;
2023/03/17 00:56:15;;;;;;;14.2;8.9;;;;;;;-3.2;79.5;99520;;;;
2023/03/17 01:06:15;;;;;;;24.2;14;;;;;;;-3.3;79.7;99500;;;;
2023/03/17 01:16:16;;;;;;;24.2;14;;;;;;;-3.3;80;99500;;;;
2023/03/17 01:27:16;;;;;;;24.2;14;;;;;;;-3.4;80.3;99500;;;;
2023/03/17 01:37:15;;;;;;;29.1;14.3;;;;;;;-3.5;80.2;99500;;;;
2023/03/17 01:48:16;;;;;;;29.1;14.3;;;;;;;-3.6;80.6;99500;;;;
2023/03/17 01:59:15;;;;;;;29.1;14.3;;;;;;;-3.6;80.7;99480;;;;
2023/03/17 02:09:16;;;;;;;21.7;13.6;;;;;;;-3.7;80.8;99480;;;;
2023/03/17 02:20:16;;;;;;;21.7;13.6;;;;;;;-3.7;80.9;99490;;;;
2023/03/17 02:31:16;;;;;;;27.9;17;;;;;;;-3.8;82;99470;;;;
2023/03/17 02:41:16;;;;;;;27.9;17;;;;;;;-3.8;82.4;99480;;;;
2023/03/17 02:51:15;;;;;;;27.9;17;;;;;;;-3.9;82.2;99470;;;;
2023/03/17 03:02:16;;;;;;;27.4;14.7;;;;;;;-3.9;82.7;99470;;;;
2023/03/17 03:13:16;;;;;;;27.4;14.7;;;;;;;-3.9;83.3;99460;;;;
2023/03/17 03:23:16;;;;;;;27.4;14.7;;;;;;;-3.9;83.6;99470;;;;
2023/03/17 03:33:16;;;;;;;24.9;15.4;;;;;;;-3.9;83.5;99450;;;;
2023/03/17 03:43:16;;;;;;;24.9;15.4;;;;;;;-3.9;83.5;99430;;;;
2023/03/17 03:54:16;;;;;;;24.9;15.4;;;;;;;-3.5;83.5;99440;;;;
2023/03/17 04:05:17;;;;;;;21.3;10.7;;;;;;;-3.3;82.9;99450;;;;
2023/03/17 04:15:16;;;;;;;21.3;10.7;;;;;;;-2.8;81.6;99440;;;;
2023/03/17 04:26:17;;;;;;;21.3;10.7;;;;;;;-2.3;79.8;99430;;;;
2023/03/17 04:36:16;;;;;;;12.4;7.1;;;;;;;-2.2;79;99460;;;;
2023/03/17 04:47:16;;;;;;;12.4;7.1;;;;;;;-2.5;78.3;99470;;;;
2023/03/17 04:57:16;;;;;;;12.4;7.1;;;;;;;-2.8;78;99460;;;;
2023/03/17 05:08:16;;;;;;;17;10.3;;;;;;;-3;78.3;99430;;;;
2023/03/17 05:18:16;;;;;;;17;10.3;;;;;;;-3.1;78.7;99440;;;;
2023/03/17 05:29:16;;;;;;;13.8;7.8;;;;;;;-2.9;79.1;99460;;;;
2023/03/17 05:39:16;;;;;;;13.8;7.8;;;;;;;-2.7;79.3;99470;;;;
2023/03/17 05:49:16;;;;;;;13.8;7.8;;;;;;;-2.5;79.4;99480;;;;
2023/03/17 06:00:17;;;;;;;14.6;8.7;;;;;;;-2;79.5;99470;;;;
2023/03/17 06:10:16;;;;;;;14.6;8.7;;;;;;;-1.5;79.2;99480;;;;
2023/03/17 06:20:16;;;;;;;14.6;8.7;;;;;;;-1;78.9;99490;;;;
2023/03/17 06:30:16;;;;;;;16.7;9.2;;;;;;;-0.4;78.5;99490;;;;
2023/03/17 06:41:16;;;;;;;16.7;9.2;;;;;;;0.1;78.2;99490;;;;
2023/03/17 06:51:16;;;;;;;16.7;9.2;;;;;;;0.6;77.6;99500;;;;
2023/03/17 07:01:16;;;;;;;24;13.1;;;;;;;1.1;76.7;99490;;;;
2023/03/17 07:12:16;;;;;;;24;13.1;;;;;;;1.6;75.9;99490;;;;
2023/03/17 07:23:16;;;;;;;24;13.1;;;;;;;2.2;74.5;99490;;;;
2023/03/17 07:33:16;;;;;;;28;15.2;;;;;;;2.9;72.4;99480;;;;
2023/03/17 07:43:16;;;;;;;28;15.2;;;;;;;3.5;69.8;99480;;;;
2023/03/17 07:54:16;;;;;;;28;15.2;;;;;;;4.1;67.7;99480;;;;
2023/03/17 08:04:16;;;;;;;19.2;11.4;;;;;;;4.8;63.6;99470;;;;
2023/03/17 08:15:16;;;;;;;19.2;11.4;;;;;;;5.3;62.5;99470;;;;
2023/03/17 08:25:16;;;;;;;19.2;11.4;;;;;;;5.7;61.1;99460;;;;
2023/03/17 08:35:17;;;;;;;25;14.9;;;;;;;6.2;59.4;99460;;;;
2023/03/17 08:45:17;;;;;;;25;14.9;;;;;;;6.6;56.7;99460;;;;
2023/03/17 08:55:16;;;;;;;25;14.9;;;;;;;6.9;52.3;99460;;;;
2023/03/17 09:06:16;;;;;;;14.8;10.3;;;;;;;7.2;49.3;99450;;;;
2023/03/17 09:17:16;;;;;;;14.8;10.3;;;;;;;7.6;45.8;99440;;;;
2023/03/17 09:28:16;;;;;;;7.6;4.9;;;;;;;8;44.8;99440;;;;
2023/03/17 09:38:16;;;;;;;7.6;4.9;;;;;;;8;40.7;99430;;;;
2023/03/17 09:48:16;;;;;;;7.6;4.9;;;;;;;8.5;41.3;99420;;;;
2023/03/17 09:58:16;;;;;;;8;4.6;;;;;;;9;40.9;99400;;;;
2023/03/17 10:09:16;;;;;;;8;4.6;;;;;;;9.2;39.9;99390;;;;
2023/03/17 10:19:16;;;;;;;8;4.6;;;;;;;9.3;38.7;99360;;;;
2023/03/17 10:29:16;;;;;;;7.2;5.2;;;;;;;9.7;37.6;99360;;;;
2023/03/17 10:39:16;;;;;;;7.2;5.2;;;;;;;10.1;38.8;99350;;;;
2023/03/17 10:50:16;;;;;;;7.2;5.2;;;;;;;10;35.8;99330;;;;
2023/03/17 11:00:18;;;;;;;8;4.2;;;;;;;10.4;34.4;99320;;;;
2023/03/17 11:11:16;;;;;;;8;4.2;;;;;;;11.2;34.2;99310;;;;
2023/03/17 11:21:16;;;;;;;8;4.2;;;;;;;11.2;32.5;99300;;;;
2023/03/17 11:32:16;;;;;;;6.5;3.8;;;;;;;11.5;32.8;99290;;;;
2023/03/17 11:43:16;;;;;;;6.5;3.8;;;;;;;11.3;32.4;99280;;;;
2023/03/17 11:53:16;;;;;;;6.5;3.8;;;;;;;11.6;32.4;99250;;;;
2023/03/17 12:04:17;;;;;;;7;3.9;;;;;;;11.6;32.4;99230;;;;
2023/03/17 12:14:16;;;;;;;7;3.9;;;;;;;11.7;33.3;99220;;;;
2023/03/17 12:25:16;;;;;;;7;3.9;;;;;;;12;31.5;99220;;;;
2023/03/17 12:36:16;;;;;;;6.4;3.7;;;;;;;12.1;28.1;99210;;;;
2023/03/17 12:47:16;;;;;;;6.4;3.7;;;;;;;12.2;29.5;99190;;;;
2023/03/17 12:58:17;;;;;;;6.9;3.6;;;;;;;12.3;30.1;99170;;;;
2023/03/17 13:08:16;;;;;;;6.9;3.6;;;;;;;12.9;29.4;99160;;;;
2023/03/17 13:19:16;;;;;;;6.9;3.6;;;;;;;12.7;29.3;99160;;;;
2023/03/17 13:30:16;;;;;;;7.2;3.9;;;;;;;12.8;30.8;99150;;;;
2023/03/17 13:41:16;;;;;;;7.2;3.9;;;;;;;12.7;32.7;99150;;;;
2023/03/17 13:51:16;;;;;;;7.2;3.9;;;;;;;12.5;32.1;99140;;;;
2023/03/17 14:02:16;;;;;;;6.8;4.2;;;;;;;12.7;33.8;99130;;;;
2023/03/17 14:13:16;;;;;;;6.8;4.2;;;;;;;12.7;33.4;99110;;;;
2023/03/17 14:23:16;;;;;;;6.8;4.2;;;;;;;12.4;33.8;99100;;;;
2023/03/17 14:34:16;;;;;;;9.7;4.8;;;;;;;12.3;34.6;99090;;;;
2023/03/17 14:44:16;;;;;;;9.7;4.8;;;;;;;12;35.7;99090;;;;
2023/03/17 14:55:16;;;;;;;9.7;4.8;;;;;;;12;35.8;99080;;;;
2023/03/17 15:05:16;;;;;;;7.7;5.1;;;;;;;12.3;35.5;99060;;;;
2023/03/17 15:16:16;;;;;;;7.7;5.1;;;;;;;12.1;33.7;99050;;;;
2023/03/17 15:26:16;;;;;;;7.7;5.1;;;;;;;11.6;33.6;99040;;;;
2023/03/17 15:36:16;;;;;;;8.4;4.8;;;;;;;11.7;34.1;99030;;;;
2023/03/17 15:47:16;;;;;;;8.4;4.8;;;;;;;12;33.2;99030;;;;
2023/03/17 15:58:16;;;;;;;8.6;5.4;;;;;;;12.9;32.5;99020;;;;
2023/03/17 16:08:16;;;;;;;8.6;5.4;;;;;;;12.4;32.5;99020;;;;
2023/03/17 16:18:17;;;;;;;8.6;5.4;;;;;;;11.4;33.3;99010;;;;
2023/03/17 16:28:16;;;;;;;9.3;5;;;;;;;10.4;35;99010;;;;
2023/03/17 16:39:17;;;;;;;9.3;5;;;;;;;9.8;36.1;99020;;;;
2023/03/17 16:49:16;;;;;;;9.3;5;;;;;;;9.2;37.8;99030;;;;
2023/03/17 16:59:16;;;;;;;10.4;6.6;;;;;;;8.6;39.3;99020;;;;
2023/03/17 17:09:16;;;;;;;10.4;6.6;;;;;;;8.2;40.9;99020;;;;
2023/03/17 17:19:16;;;;;;;10.4;6.6;;;;;;;7.8;42.6;99030;;;;
2023/03/17 17:29:16;;;;;;;14.6;8.1;;;;;;;7.5;43.5;99030;;;;
2023/03/17 17:40:16;;;;;;;14.6;8.1;;;;;;;7.2;45;99030;;;;
2023/03/17 17:50:16;;;;;;;14.6;8.1;;;;;;;6.9;45.9;99040;;;;
2023/03/17 18:00:16;;;;;;;16.1;8.6;;;;;;;6.6;47.2;99040;;;;
2023/03/17 18:11:16;;;;;;;16.1;8.6;;;;;;;6.4;48.2;99040;;;;
2023/03/17 18:22:16;;;;;;;16.1;8.6;;;;;;;6.1;49.1;99050;;;;
2023/03/17 18:33:16;;;;;;;20.5;9.6;;;;;;;5.8;49.8;99060;;;;
2023/03/17 18:43:16;;;;;;;20.5;9.6;;;;;;;5.7;50.3;99060;;;;
2023/03/17 18:54:16;;;;;;;20.5;9.6;;;;;;;5.4;51.2;99050;;;;
2023/03/17 19:04:16;;;;;;;26.9;14.1;;;;;;;5.1;51.6;99050;;;;
2023/03/17 19:15:17;;;;;;;26.9;14.1;;;;;;;4.7;52.3;99040;;;;
2023/03/17 19:26:16;;;;;;;26.9;14.1;;;;;;;4.5;53.6;99030;;;;
2023/03/17 19:37:16;;;;;;;43.2;20.7;;;;;;;4.4;54.2;99020;;;;
2023/03/17 19:47:16;;;;;;;43.2;20.7;;;;;;;4.3;55;99020;;;;
2023/03/17 19:58:16;;;;;;;25.4;11.5;;;;;;;4.3;55.4;99010;;;;
2023/03/17 20:08:17;;;;;;;25.4;11.5;;;;;;;4.3;55.4;99020;;;;
2023/03/17 20:18:17;;;;;;;25.4;11.5;;;;;;;4.2;56;99010;;;;
2023/03/17 20:28:16;;;;;;;21.3;12.1;;;;;;;4.1;56;99010;;;;
2023/03/17 20:38:16;;;;;;;21.3;12.1;;;;;;;3.8;55.7;99010;;;;
2023/03/17 20:49:16;;;;;;;21.3;12.1;;;;;;;3.3;57.1;99010;;;;
2023/03/17 20:59:16;;;;;;;34.1;19.2;;;;;;;2.8;57.7;99010;;;;
2023/03/17 21:09:16;;;;;;;34.1;19.2;;;;;;;2.3;59;99010;;;;
2023/03/17 21:19:16;;;;;;;34.1;19.2;;;;;;;2;60.7;99010;;;;
2023/03/17 21:29:16;;;;;;;23.5;14.1;;;;;;;1.7;63.5;99000;;;;
2023/03/17 21:39:16;;;;;;;23.5;14.1;;;;;;;1.6;64.6;99010;;;;
2023/03/17 21:49:17;;;;;;;23.5;14.1;;;;;;;1.4;65.9;99010;;;;
2023/03/17 22:00:16;;;;;;;20.7;12.6;;;;;;;1.2;67.6;99010;;;;
2023/03/17 22:11:16;;;;;;;20.7;12.6;;;;;;;1.1;66.9;99010;;;;
2023/03/17 22:21:16;;;;;;;20.7;12.6;;;;;;;0.9;66.7;99010;;;;
2023/03/17 22:32:16;;;;;;;16.9;9.4;;;;;;;0.9;68;99010;;;;
2023/03/17 22:42:16;;;;;;;16.9;9.4;;;;;;;0.9;68.4;99010;;;;
2023/03/17 22:52:16;;;;;;;16.9;9.4;;;;;;;0.9;68.4;99010;;;;
2023/03/17 23:02:16;;;;;;;20.9;11.8;;;;;;;0.8;67.3;99000;;;;
2023/03/17 23:13:16;;;;;;;20.9;11.8;;;;;;;0.5;67.8;99000;;;;
2023/03/17 23:23:16;;;;;;;20.9;11.8;;;;;;;0.4;68.7;99000;;;;
2023/03/17 23:33:20;;;;;;;21.6;11.1;;;;;;;0.2;68.9;99010;;;;
2023/03/17 23:44:16;;;;;;;21.6;11.1;;;;;;;0;69.2;98990;;;;
2023/03/17 23:55:16;;;;;;;21.6;11.1;;;;;;;-0.1;70;98990;;;;
